createdAt,value
2018-01-21T00:00:18.124Z,997.00
2018-01-21T00:00:53.418Z,997.00
2018-01-21T00:01:28.929Z,996.99
2018-01-21T00:02:04.299Z,997.02
2018-01-21T00:02:39.510Z,997.02
2018-01-21T00:03:14.878Z,997.01
2018-01-21T00:03:50.454Z,997.03
2018-01-21T00:04:26.077Z,997.03
2018-01-21T00:05:01.253Z,997.03
2018-01-21T00:05:36.669Z,997.08
2018-01-21T00:06:12.262Z,997.07
2018-01-21T00:06:47.485Z,997.05
2018-01-21T00:07:23.098Z,997.04
2018-01-21T00:07:58.271Z,997.04
2018-01-21T00:08:33.407Z,997.03
2018-01-21T00:09:08.584Z,997.02
2018-01-21T00:09:43.993Z,997.02
2018-01-21T00:10:19.106Z,997.05
2018-01-21T00:10:54.387Z,997.07
2018-01-21T00:11:29.789Z,997.10
2018-01-21T00:12:05.273Z,997.10
2018-01-21T00:12:40.701Z,997.12
2018-01-21T00:13:15.934Z,997.12
2018-01-21T00:13:51.233Z,997.15
2018-01-21T00:14:26.432Z,997.16
2018-01-21T00:15:01.706Z,997.18
2018-01-21T00:15:37.126Z,997.19
2018-01-21T00:16:12.314Z,997.26
2018-01-21T00:16:47.621Z,997.24
2018-01-21T00:17:22.919Z,997.23
2018-01-21T00:17:58.329Z,997.22
2018-01-21T00:18:33.468Z,997.27
2018-01-21T00:19:08.864Z,997.26
2018-01-21T00:19:44.171Z,997.24
2018-01-21T00:20:19.282Z,997.23
2018-01-21T00:20:54.774Z,997.31
2018-01-21T00:21:30.275Z,997.34
2018-01-21T00:22:05.458Z,997.36
2018-01-21T00:22:40.863Z,997.38
2018-01-21T00:23:16.515Z,997.40
2018-01-21T00:23:51.696Z,997.38
2018-01-21T00:24:27.405Z,997.43
2018-01-21T00:25:02.993Z,997.42
2018-01-21T00:25:38.301Z,997.42
2018-01-21T00:26:13.686Z,997.44
2018-01-21T00:26:49.697Z,997.45
2018-01-21T00:27:24.915Z,997.42
2018-01-21T00:28:00.110Z,997.44
2018-01-21T00:28:35.346Z,997.45
2018-01-21T00:29:10.634Z,997.46
2018-01-21T00:29:46.243Z,997.48
2018-01-21T00:30:21.447Z,997.50
2018-01-21T00:30:57.018Z,997.46
2018-01-21T00:31:32.118Z,997.48
2018-01-21T00:32:07.494Z,997.51
2018-01-21T00:32:43.093Z,997.53
2018-01-21T00:33:18.412Z,997.51
2018-01-21T00:33:53.728Z,997.51
2018-01-21T00:34:29.732Z,997.51
2018-01-21T00:35:05.309Z,997.55
2018-01-21T00:35:40.422Z,997.60
2018-01-21T00:36:15.834Z,997.57
2018-01-21T00:36:51.021Z,997.60
2018-01-21T00:37:26.529Z,997.59
2018-01-21T00:38:01.621Z,997.62
2018-01-21T00:38:37.042Z,997.61
2018-01-21T00:39:12.514Z,997.61
2018-01-21T00:39:47.637Z,997.62
2018-01-21T00:40:22.745Z,997.64
2018-01-21T00:40:58.048Z,997.64
2018-01-21T00:41:33.255Z,997.64
2018-01-21T00:42:08.841Z,997.67
2018-01-21T00:42:44.443Z,997.68
2018-01-21T00:43:19.543Z,997.64
2018-01-21T00:43:55.161Z,997.68
2018-01-21T00:44:30.377Z,997.67
2018-01-21T00:45:05.722Z,997.70
2018-01-21T00:45:40.775Z,997.71
2018-01-21T00:46:16.177Z,997.71
2018-01-21T00:46:51.671Z,997.74
2018-01-21T00:47:26.579Z,997.73
2018-01-21T00:48:02.159Z,997.70
2018-01-21T00:48:37.780Z,997.75
2018-01-21T00:49:13.076Z,997.72
2018-01-21T00:49:48.489Z,997.78
2018-01-21T00:50:23.795Z,997.77
2018-01-21T00:50:59.082Z,997.79
2018-01-21T00:51:34.311Z,997.79
2018-01-21T00:52:09.896Z,997.83
2018-01-21T00:52:45.203Z,997.80
2018-01-21T00:53:20.338Z,997.80
2018-01-21T00:53:55.746Z,997.83
2018-01-21T00:54:31.042Z,997.84
2018-01-21T00:55:06.030Z,997.86
2018-01-21T00:55:41.538Z,997.86
2018-01-21T00:56:16.950Z,997.86
2018-01-21T00:56:52.729Z,997.88
2018-01-21T00:57:27.844Z,997.91
2018-01-21T00:58:03.142Z,997.90
2018-01-21T00:58:39.071Z,997.91
2018-01-21T00:59:14.590Z,997.95
2018-01-21T00:59:49.775Z,997.96
2018-01-21T01:00:24.790Z,997.97
2018-01-21T01:01:00.164Z,997.97
2018-01-21T01:01:35.478Z,997.92
2018-01-21T01:02:10.777Z,997.97
2018-01-21T01:02:48.671Z,997.97
2018-01-21T01:03:23.994Z,997.96
2018-01-21T01:03:59.400Z,997.97
2018-01-21T01:04:34.620Z,997.97
2018-01-21T01:05:09.693Z,997.98
2018-01-21T01:05:44.704Z,998.03
2018-01-21T01:06:20.014Z,998.02
2018-01-21T01:06:55.705Z,998.08
2018-01-21T01:07:31.414Z,998.11
2018-01-21T01:08:06.892Z,998.12
2018-01-21T01:08:42.314Z,998.12
2018-01-21T01:09:17.555Z,998.16
2018-01-21T01:09:52.629Z,998.15
2018-01-21T01:10:27.829Z,998.21
2018-01-21T01:11:03.019Z,998.21
2018-01-21T01:11:38.349Z,998.22
2018-01-21T01:12:13.424Z,998.25
2018-01-21T01:12:48.736Z,998.28
2018-01-21T01:13:24.143Z,998.27
2018-01-21T01:13:59.557Z,998.29
2018-01-21T01:14:34.773Z,998.33
2018-01-21T01:15:09.960Z,998.33
2018-01-21T01:15:45.768Z,998.29
2018-01-21T01:16:21.275Z,998.30
2018-01-21T01:16:56.466Z,998.36
2018-01-21T01:17:32.078Z,998.36
2018-01-21T01:18:07.372Z,998.38
2018-01-21T01:18:42.795Z,998.42
2018-01-21T01:19:18.030Z,998.43
2018-01-21T01:19:53.227Z,998.48
2018-01-21T01:20:28.556Z,998.44
2018-01-21T01:21:04.242Z,998.48
2018-01-21T01:21:39.754Z,998.45
2018-01-21T01:22:14.973Z,998.49
2018-01-21T01:22:50.158Z,998.52
2018-01-21T01:23:25.771Z,998.50
2018-01-21T01:24:01.290Z,998.47
2018-01-21T01:24:36.617Z,998.49
2018-01-21T01:25:12.202Z,998.52
2018-01-21T01:25:47.723Z,998.51
2018-01-21T01:26:22.834Z,998.57
2018-01-21T01:26:58.108Z,998.51
2018-01-21T01:27:33.320Z,998.57
2018-01-21T01:28:08.484Z,998.57
2018-01-21T01:28:43.787Z,998.57
2018-01-21T01:29:19.016Z,998.59
2018-01-21T01:29:54.291Z,998.57
2018-01-21T01:30:29.594Z,998.60
2018-01-21T01:31:04.878Z,998.59
2018-01-21T01:31:40.285Z,998.61
2018-01-21T01:32:15.589Z,998.55
2018-01-21T01:32:50.959Z,998.57
2018-01-21T01:33:26.361Z,998.58
2018-01-21T01:34:02.132Z,998.55
2018-01-21T01:34:37.762Z,998.53
2018-01-21T01:35:13.252Z,998.54
2018-01-21T01:35:48.854Z,998.51
2018-01-21T01:36:24.350Z,998.56
2018-01-21T01:36:59.621Z,998.50
2018-01-21T01:37:35.025Z,998.53
2018-01-21T01:38:10.411Z,998.58
2018-01-21T01:38:45.709Z,998.58
2018-01-21T01:39:21.015Z,998.62
2018-01-21T01:39:56.127Z,998.63
2018-01-21T01:40:31.322Z,998.67
2018-01-21T01:41:06.896Z,998.70
2018-01-21T01:41:42.092Z,998.69
2018-01-21T01:42:17.696Z,998.78
2018-01-21T01:42:53.268Z,998.75
2018-01-21T01:43:28.468Z,998.77
2018-01-21T01:44:03.946Z,998.76
2018-01-21T01:44:39.452Z,998.79
2018-01-21T01:45:14.976Z,998.83
2018-01-21T01:45:50.352Z,998.85
2018-01-21T01:46:26.055Z,998.82
2018-01-21T01:47:01.345Z,998.86
2018-01-21T01:47:36.750Z,998.82
2018-01-21T01:48:12.023Z,998.89
2018-01-21T01:48:47.565Z,998.92
2018-01-21T01:49:22.919Z,998.91
2018-01-21T01:49:58.095Z,998.90
2018-01-21T01:50:33.532Z,998.93
2018-01-21T01:51:09.405Z,998.96
2018-01-21T01:51:45.016Z,998.90
2018-01-21T01:52:20.215Z,998.95
2018-01-21T01:52:55.598Z,998.95
2018-01-21T01:53:30.739Z,998.93
2018-01-21T01:54:05.873Z,998.96
2018-01-21T01:54:41.273Z,998.98
2018-01-21T01:55:16.476Z,999.02
2018-01-21T01:55:51.884Z,999.05
2018-01-21T01:56:27.083Z,999.03
2018-01-21T01:57:02.581Z,999.03
2018-01-21T01:57:42.280Z,999.09
2018-01-21T01:58:20.795Z,999.08
2018-01-21T01:58:56.073Z,999.11
2018-01-21T01:59:31.271Z,999.10
2018-01-21T02:00:06.562Z,999.10
2018-01-21T02:00:45.270Z,999.11
2018-01-21T02:01:24.507Z,999.09
2018-01-21T02:01:59.985Z,999.13
2018-01-21T02:02:35.186Z,999.13
2018-01-21T02:03:10.564Z,999.16
2018-01-21T02:03:46.169Z,999.20
2018-01-21T02:04:21.567Z,999.23
2018-01-21T02:04:57.048Z,999.21
2018-01-21T02:05:32.147Z,999.24
2018-01-21T02:06:07.524Z,999.28
2018-01-21T02:06:42.755Z,999.29
2018-01-21T02:07:17.960Z,999.25
2018-01-21T02:07:53.337Z,999.28
2018-01-21T02:08:28.843Z,999.33
2018-01-21T02:09:04.214Z,999.38
2018-01-21T02:09:39.521Z,999.36
2018-01-21T02:10:14.620Z,999.38
2018-01-21T02:10:50.105Z,999.38
2018-01-21T02:11:25.709Z,999.40
2018-01-21T02:12:01.519Z,999.39
2018-01-21T02:12:36.819Z,999.39
2018-01-21T02:13:12.394Z,999.36
2018-01-21T02:13:47.790Z,999.34
2018-01-21T02:14:23.284Z,999.37
2018-01-21T02:14:58.458Z,999.37
2018-01-21T02:15:34.056Z,999.37
2018-01-21T02:16:09.535Z,999.41
2018-01-21T02:16:45.035Z,999.45
2018-01-21T02:17:20.461Z,999.45
2018-01-21T02:17:55.739Z,999.45
2018-01-21T02:18:31.247Z,999.48
2018-01-21T02:19:06.317Z,999.47
2018-01-21T02:19:41.520Z,999.48
2018-01-21T02:20:17.019Z,999.52
2018-01-21T02:20:52.401Z,999.56
2018-01-21T02:21:27.797Z,999.57
2018-01-21T02:22:03.076Z,999.55
2018-01-21T02:22:38.529Z,999.55
2018-01-21T02:23:14.104Z,999.60
2018-01-21T02:23:49.209Z,999.59
2018-01-21T02:24:24.312Z,999.60
2018-01-21T02:24:59.697Z,999.62
2018-01-21T02:25:34.996Z,999.64
2018-01-21T02:26:10.275Z,999.64
2018-01-21T02:26:45.686Z,999.66
2018-01-21T02:27:20.886Z,999.61
2018-01-21T02:27:56.215Z,999.63
2018-01-21T02:28:31.329Z,999.69
2018-01-21T02:29:06.925Z,999.67
2018-01-21T02:29:42.036Z,999.73
2018-01-21T02:30:17.446Z,999.71
2018-01-21T02:30:53.749Z,999.70
2018-01-21T02:31:29.469Z,999.73
2018-01-21T02:32:04.783Z,999.78
2018-01-21T02:32:40.312Z,999.80
2018-01-21T02:33:15.757Z,999.78
2018-01-21T02:33:50.944Z,999.79
2018-01-21T02:34:26.458Z,999.77
2018-01-21T02:35:01.641Z,999.78
2018-01-21T02:35:37.148Z,999.84
2018-01-21T02:36:12.741Z,999.78
2018-01-21T02:36:47.869Z,999.82
2018-01-21T02:37:23.273Z,999.81
2018-01-21T02:37:58.549Z,999.81
2018-01-21T02:38:33.990Z,999.80
2018-01-21T02:39:09.082Z,999.81
2018-01-21T02:39:44.393Z,999.79
2018-01-21T02:40:19.911Z,999.84
2018-01-21T02:40:54.991Z,999.87
2018-01-21T02:41:30.614Z,999.87
2018-01-21T02:42:06.006Z,999.87
2018-01-21T02:42:41.827Z,999.90
2018-01-21T02:43:17.240Z,999.93
2018-01-21T02:43:52.860Z,999.93
2018-01-21T02:44:28.268Z,999.93
2018-01-21T02:45:03.443Z,999.92
2018-01-21T02:45:38.770Z,999.96
2018-01-21T02:46:14.049Z,999.98
2018-01-21T02:46:49.550Z,999.95
2018-01-21T02:47:24.558Z,999.96
2018-01-21T02:47:59.833Z,999.98
2018-01-21T02:48:35.434Z,1000.03
2018-01-21T02:49:10.658Z,1000.01
2018-01-21T02:49:45.978Z,1000.04
2018-01-21T02:50:21.496Z,1000.00
2018-01-21T02:50:56.781Z,1000.02
2018-01-21T02:51:31.999Z,1000.03
2018-01-21T02:52:07.285Z,1000.06
2018-01-21T02:52:42.591Z,1000.05
2018-01-21T02:53:17.903Z,1000.04
2018-01-21T02:53:53.198Z,1000.05
2018-01-21T02:54:28.643Z,1000.06
2018-01-21T02:55:03.833Z,1000.10
2018-01-21T02:55:39.249Z,1000.10
2018-01-21T02:56:14.531Z,1000.09
2018-01-21T02:56:49.845Z,1000.09
2018-01-21T02:57:25.157Z,1000.09
2018-01-21T02:58:00.738Z,1000.11
2018-01-21T02:58:36.146Z,1000.11
2018-01-21T02:59:11.347Z,1000.13
2018-01-21T02:59:46.605Z,1000.12
2018-01-21T03:00:21.920Z,1000.13
2018-01-21T03:00:57.103Z,1000.16
2018-01-21T03:01:32.515Z,1000.14
2018-01-21T03:02:07.807Z,1000.19
2018-01-21T03:02:43.323Z,1000.23
2018-01-21T03:03:18.543Z,1000.28
2018-01-21T03:03:54.236Z,1000.24
2018-01-21T03:04:29.554Z,1000.26
2018-01-21T03:05:05.174Z,1000.27
2018-01-21T03:05:40.495Z,1000.28
2018-01-21T03:06:15.910Z,1000.31
2018-01-21T03:06:51.297Z,1000.28
2018-01-21T03:07:26.723Z,1000.31
2018-01-21T03:08:02.421Z,1000.34
2018-01-21T03:08:37.849Z,1000.32
2018-01-21T03:09:13.229Z,1000.35
2018-01-21T03:09:48.646Z,1000.33
2018-01-21T03:10:24.206Z,1000.35
2018-01-21T03:10:59.578Z,1000.35
2018-01-21T03:11:34.796Z,1000.36
2018-01-21T03:12:10.184Z,1000.33
2018-01-21T03:12:45.809Z,1000.35
2018-01-21T03:13:21.141Z,1000.36
2018-01-21T03:13:56.534Z,1000.38
2018-01-21T03:14:32.143Z,1000.40
2018-01-21T03:15:07.634Z,1000.43
2018-01-21T03:15:42.876Z,1000.43
2018-01-21T03:16:18.599Z,1000.48
2018-01-21T03:16:53.789Z,1000.46
2018-01-21T03:17:29.017Z,1000.47
2018-01-21T03:18:04.412Z,1000.47
2018-01-21T03:18:39.724Z,1000.50
2018-01-21T03:19:15.034Z,1000.51
2018-01-21T03:19:50.232Z,1000.47
2018-01-21T03:20:25.732Z,1000.51
2018-01-21T03:21:01.252Z,1000.51
2018-01-21T03:21:36.976Z,1000.51
2018-01-21T03:22:12.268Z,1000.53
2018-01-21T03:22:47.688Z,1000.56
2018-01-21T03:23:22.797Z,1000.56
2018-01-21T03:23:58.287Z,1000.58
2018-01-21T03:24:33.401Z,1000.59
2018-01-21T03:25:11.000Z,1000.61
2018-01-21T03:25:46.415Z,1000.60
2018-01-21T03:26:21.967Z,1000.59
2018-01-21T03:26:57.264Z,1000.63
2018-01-21T03:27:32.584Z,1000.61
2018-01-21T03:28:08.273Z,1000.58
2018-01-21T03:28:43.881Z,1000.57
2018-01-21T03:29:19.303Z,1000.58
2018-01-21T03:29:54.700Z,1000.59
2018-01-21T03:30:30.120Z,1000.64
2018-01-21T03:31:05.724Z,1000.64
2018-01-21T03:31:41.264Z,1000.66
2018-01-21T03:32:16.576Z,1000.66
2018-01-21T03:32:51.972Z,1000.72
2018-01-21T03:33:29.091Z,1000.73
2018-01-21T03:34:04.785Z,1000.73
2018-01-21T03:34:40.206Z,1000.70
2018-01-21T03:35:15.427Z,1000.74
2018-01-21T03:35:50.933Z,1000.73
2018-01-21T03:36:26.140Z,1000.76
2018-01-21T03:37:01.846Z,1000.76
2018-01-21T03:37:37.161Z,1000.77
2018-01-21T03:38:12.450Z,1000.81
2018-01-21T03:38:47.681Z,1000.80
2018-01-21T03:39:23.292Z,1000.84
2018-01-21T03:39:58.781Z,1000.84
2018-01-21T03:40:34.105Z,1000.86
2018-01-21T03:41:09.491Z,1000.84
2018-01-21T03:41:44.821Z,1000.83
2018-01-21T03:42:20.068Z,1000.86
2018-01-21T03:42:55.569Z,1000.87
2018-01-21T03:43:31.090Z,1000.91
2018-01-21T03:44:06.382Z,1000.94
2018-01-21T03:44:42.014Z,1000.92
2018-01-21T03:45:17.328Z,1000.96
2018-01-21T03:45:52.730Z,1000.96
2018-01-21T03:46:28.154Z,1000.98
2018-01-21T03:47:03.347Z,1000.99
2018-01-21T03:47:38.697Z,1001.02
2018-01-21T03:48:13.990Z,1001.05
2018-01-21T03:48:49.420Z,1001.08
2018-01-21T03:49:24.834Z,1001.04
2018-01-21T03:50:00.230Z,1001.09
2018-01-21T03:50:35.850Z,1001.12
2018-01-21T03:51:11.444Z,1001.09
2018-01-21T03:51:46.780Z,1001.07
2018-01-21T03:52:22.004Z,1001.09
2018-01-21T03:52:57.327Z,1001.11
2018-01-21T03:53:32.646Z,1001.12
2018-01-21T03:54:08.051Z,1001.19
2018-01-21T03:54:43.362Z,1001.18
2018-01-21T03:55:18.685Z,1001.19
2018-01-21T03:55:53.782Z,1001.18
2018-01-21T03:56:29.199Z,1001.18
2018-01-21T03:57:04.699Z,1001.19
2018-01-21T03:57:41.517Z,1001.19
2018-01-21T03:58:16.968Z,1001.28
2018-01-21T03:58:52.280Z,1001.23
2018-01-21T03:59:27.585Z,1001.25
2018-01-21T04:00:02.882Z,1001.19
2018-01-21T04:00:39.903Z,1001.21
2018-01-21T04:01:15.324Z,1001.19
2018-01-21T04:01:50.625Z,1001.20
2018-01-21T04:02:25.929Z,1001.25
2018-01-21T04:03:01.204Z,1001.24
2018-01-21T04:03:36.667Z,1001.22
2018-01-21T04:04:12.071Z,1001.24
2018-01-21T04:04:47.383Z,1001.27
2018-01-21T04:05:22.696Z,1001.30
2018-01-21T04:05:57.897Z,1001.30
2018-01-21T04:06:33.310Z,1001.29
2018-01-21T04:07:08.691Z,1001.31
2018-01-21T04:07:44.502Z,1001.29
2018-01-21T04:08:22.589Z,1001.30
2018-01-21T04:08:57.811Z,1001.24
2018-01-21T04:09:33.137Z,1001.27
2018-01-21T04:10:08.615Z,1001.27
2018-01-21T04:10:44.228Z,1001.27
2018-01-21T04:11:19.850Z,1001.27
2018-01-21T04:11:55.039Z,1001.34
2018-01-21T04:12:30.246Z,1001.26
2018-01-21T04:13:05.844Z,1001.33
2018-01-21T04:13:41.250Z,1001.32
2018-01-21T04:14:16.991Z,1001.31
2018-01-21T04:14:52.275Z,1001.36
2018-01-21T04:15:27.387Z,1001.37
2018-01-21T04:16:02.578Z,1001.37
2018-01-21T04:16:38.088Z,1001.40
2018-01-21T04:17:13.278Z,1001.37
2018-01-21T04:17:48.788Z,1001.37
2018-01-21T04:18:24.185Z,1001.36
2018-01-21T04:18:59.874Z,1001.38
2018-01-21T04:19:35.246Z,1001.39
2018-01-21T04:20:10.706Z,1001.40
2018-01-21T04:20:46.126Z,1001.41
2018-01-21T04:21:21.737Z,1001.40
2018-01-21T04:21:57.116Z,1001.42
2018-01-21T04:22:32.637Z,1001.47
2018-01-21T04:23:07.925Z,1001.47
2018-01-21T04:23:43.141Z,1001.50
2018-01-21T04:24:18.445Z,1001.48
2018-01-21T04:24:53.655Z,1001.46
2018-01-21T04:25:29.153Z,1001.47
2018-01-21T04:26:04.731Z,1001.47
2018-01-21T04:26:40.032Z,1001.47
2018-01-21T04:27:15.237Z,1001.48
2018-01-21T04:27:50.614Z,1001.50
2018-01-21T04:28:25.821Z,1001.48
2018-01-21T04:29:01.201Z,1001.48
2018-01-21T04:29:36.614Z,1001.52
2018-01-21T04:30:11.920Z,1001.49
2018-01-21T04:30:46.917Z,1001.54
2018-01-21T04:31:22.126Z,1001.56
2018-01-21T04:31:57.401Z,1001.56
2018-01-21T04:32:33.006Z,1001.58
2018-01-21T04:33:08.297Z,1001.59
2018-01-21T04:33:43.895Z,1001.61
2018-01-21T04:34:19.395Z,1001.60
2018-01-21T04:34:54.670Z,1001.63
2018-01-21T04:35:29.903Z,1001.65
2018-01-21T04:36:05.380Z,1001.66
2018-01-21T04:36:40.583Z,1001.65
2018-01-21T04:37:15.693Z,1001.70
2018-01-21T04:37:51.180Z,1001.70
2018-01-21T04:38:26.489Z,1001.70
2018-01-21T04:39:01.874Z,1001.74
2018-01-21T04:39:37.214Z,1001.75
2018-01-21T04:40:12.594Z,1001.78
2018-01-21T04:40:48.033Z,1001.81
2018-01-21T04:41:23.338Z,1001.79
2018-01-21T04:41:58.831Z,1001.83
2018-01-21T04:42:34.047Z,1001.79
2018-01-21T04:43:09.336Z,1001.81
2018-01-21T04:43:44.638Z,1001.84
2018-01-21T04:44:20.145Z,1001.84
2018-01-21T04:44:55.324Z,1001.83
2018-01-21T04:45:30.734Z,1001.87
2018-01-21T04:46:05.849Z,1001.90
2018-01-21T04:46:41.457Z,1001.88
2018-01-21T04:47:16.855Z,1001.87
2018-01-21T04:47:52.033Z,1001.91
2018-01-21T04:48:27.837Z,1001.90
2018-01-21T04:49:03.124Z,1001.93
2018-01-21T04:49:39.529Z,1001.94
2018-01-21T04:50:14.827Z,1001.93
2018-01-21T04:50:50.013Z,1001.93
2018-01-21T04:51:25.652Z,1001.96
2018-01-21T04:52:01.240Z,1001.96
2018-01-21T04:52:36.747Z,1001.99
2018-01-21T04:53:12.224Z,1001.98
2018-01-21T04:53:47.842Z,1001.99
2018-01-21T04:54:22.944Z,1001.98
2018-01-21T04:54:58.025Z,1002.02
2018-01-21T04:55:33.326Z,1002.03
2018-01-21T04:56:08.803Z,1002.06
2018-01-21T04:56:44.152Z,1002.06
2018-01-21T04:57:19.853Z,1002.08
2018-01-21T04:57:55.142Z,1002.12
2018-01-21T04:58:30.774Z,1002.12
2018-01-21T04:59:05.851Z,1002.17
2018-01-21T04:59:41.060Z,1002.18
2018-01-21T05:00:16.564Z,1002.22
2018-01-21T05:00:51.641Z,1002.16
2018-01-21T05:01:26.955Z,1002.18
2018-01-21T05:02:02.375Z,1002.17
2018-01-21T05:02:37.787Z,1002.17
2018-01-21T05:03:13.065Z,1002.23
2018-01-21T05:03:48.567Z,1002.24
2018-01-21T05:04:23.875Z,1002.20
2018-01-21T05:04:59.465Z,1002.19
2018-01-21T05:05:34.974Z,1002.20
2018-01-21T05:06:10.150Z,1002.22
2018-01-21T05:06:45.653Z,1002.25
2018-01-21T05:07:21.183Z,1002.26
2018-01-21T05:07:56.582Z,1002.23
2018-01-21T05:08:32.089Z,1002.25
2018-01-21T05:09:07.571Z,1002.29
2018-01-21T05:09:43.082Z,1002.30
2018-01-21T05:10:18.676Z,1002.32
2018-01-21T05:10:54.057Z,1002.33
2018-01-21T05:11:29.964Z,1002.35
2018-01-21T05:12:05.537Z,1002.33
2018-01-21T05:12:41.375Z,1002.32
2018-01-21T05:13:17.076Z,1002.33
2018-01-21T05:13:52.257Z,1002.33
2018-01-21T05:14:27.469Z,1002.32
2018-01-21T05:15:02.944Z,1002.34
2018-01-21T05:15:38.761Z,1002.32
2018-01-21T05:16:14.271Z,1002.33
2018-01-21T05:16:49.458Z,1002.34
2018-01-21T05:17:24.869Z,1002.37
2018-01-21T05:18:00.176Z,1002.38
2018-01-21T05:18:35.704Z,1002.40
2018-01-21T05:19:10.883Z,1002.44
2018-01-21T05:19:46.088Z,1002.44
2018-01-21T05:20:21.683Z,1002.41
2018-01-21T05:20:57.165Z,1002.43
2018-01-21T05:21:32.667Z,1002.45
2018-01-21T05:22:08.247Z,1002.42
2018-01-21T05:22:44.163Z,1002.46
2018-01-21T05:23:19.403Z,1002.46
2018-01-21T05:23:54.736Z,1002.46
2018-01-21T05:24:29.929Z,1002.49
2018-01-21T05:25:05.266Z,1002.44
2018-01-21T05:25:42.273Z,1002.44
2018-01-21T05:26:17.788Z,1002.47
2018-01-21T05:26:53.172Z,1002.47
2018-01-21T05:27:28.886Z,1002.50
2018-01-21T05:28:04.271Z,1002.51
2018-01-21T05:28:39.904Z,1002.51
2018-01-21T05:29:15.514Z,1002.53
2018-01-21T05:29:51.094Z,1002.50
2018-01-21T05:30:26.400Z,1002.51
2018-01-21T05:31:01.984Z,1002.57
2018-01-21T05:31:37.192Z,1002.52
2018-01-21T05:32:12.480Z,1002.55
2018-01-21T05:32:47.786Z,1002.52
2018-01-21T05:33:23.416Z,1002.53
2018-01-21T05:33:58.725Z,1002.54
2018-01-21T05:34:33.828Z,1002.55
2018-01-21T05:35:09.312Z,1002.50
2018-01-21T05:35:44.916Z,1002.51
2018-01-21T05:36:20.421Z,1002.49
2018-01-21T05:36:55.700Z,1002.53
2018-01-21T05:37:31.011Z,1002.56
2018-01-21T05:38:06.592Z,1002.52
2018-01-21T05:38:41.997Z,1002.55
2018-01-21T05:39:17.136Z,1002.53
2018-01-21T05:39:52.514Z,1002.55
2018-01-21T05:40:27.723Z,1002.58
2018-01-21T05:41:04.596Z,1002.59
2018-01-21T05:41:40.301Z,1002.59
2018-01-21T05:42:15.714Z,1002.60
2018-01-21T05:42:51.100Z,1002.64
2018-01-21T05:43:26.816Z,1002.62
2018-01-21T05:44:02.496Z,1002.63
2018-01-21T05:44:37.744Z,1002.66
2018-01-21T05:45:13.023Z,1002.68
2018-01-21T05:45:48.231Z,1002.70
2018-01-21T05:46:23.541Z,1002.68
2018-01-21T05:46:58.820Z,1002.70
2018-01-21T05:47:34.637Z,1002.65
2018-01-21T05:48:10.121Z,1002.71
2018-01-21T05:48:45.426Z,1002.75
2018-01-21T05:49:21.130Z,1002.76
2018-01-21T05:49:56.440Z,1002.74
2018-01-21T05:50:31.742Z,1002.77
2018-01-21T05:51:07.019Z,1002.82
2018-01-21T05:51:42.532Z,1002.77
2018-01-21T05:52:17.932Z,1002.82
2018-01-21T05:52:53.219Z,1002.81
2018-01-21T05:53:28.728Z,1002.80
2018-01-21T05:54:03.817Z,1002.83
2018-01-21T05:54:39.329Z,1002.82
2018-01-21T05:55:14.637Z,1002.83
2018-01-21T05:55:50.038Z,1002.84
2018-01-21T05:56:25.346Z,1002.81
2018-01-21T05:57:00.638Z,1002.84
2018-01-21T05:57:35.943Z,1002.82
2018-01-21T05:58:11.130Z,1002.88
2018-01-21T05:58:46.633Z,1002.88
2018-01-21T05:59:22.243Z,1002.88
2018-01-21T05:59:57.726Z,1002.88
2018-01-21T06:00:33.253Z,1002.91
2018-01-21T06:01:08.730Z,1002.90
2018-01-21T06:01:43.929Z,1002.90
2018-01-21T06:02:19.348Z,1002.92
2018-01-21T06:02:54.828Z,1002.92
2018-01-21T06:03:30.447Z,1002.93
2018-01-21T06:04:05.839Z,1002.95
2018-01-21T06:04:41.348Z,1002.92
2018-01-21T06:05:16.559Z,1002.93
2018-01-21T06:05:51.884Z,1002.97
2018-01-21T06:06:27.405Z,1002.94
2018-01-21T06:07:02.590Z,1002.93
2018-01-21T06:07:38.005Z,1002.93
2018-01-21T06:08:13.699Z,1002.93
2018-01-21T06:08:48.912Z,1002.93
2018-01-21T06:09:24.222Z,1002.95
2018-01-21T06:09:59.506Z,1002.98
2018-01-21T06:10:34.628Z,1002.99
2018-01-21T06:11:09.854Z,1003.04
2018-01-21T06:11:45.075Z,1003.05
2018-01-21T06:12:20.402Z,1003.00
2018-01-21T06:12:55.893Z,1003.03
2018-01-21T06:13:30.911Z,1003.03
2018-01-21T06:14:06.607Z,1003.01
2018-01-21T06:14:42.016Z,1003.04
2018-01-21T06:15:17.125Z,1003.08
2018-01-21T06:15:54.658Z,1003.05
2018-01-21T06:16:29.855Z,1003.09
2018-01-21T06:17:05.136Z,1003.11
2018-01-21T06:17:40.554Z,1003.12
2018-01-21T06:18:16.153Z,1003.15
2018-01-21T06:18:51.544Z,1003.15
2018-01-21T06:19:26.861Z,1003.15
2018-01-21T06:20:02.347Z,1003.19
2018-01-21T06:20:37.754Z,1003.24
2018-01-21T06:21:13.342Z,1003.20
2018-01-21T06:21:48.710Z,1003.23
2018-01-21T06:22:23.916Z,1003.23
2018-01-21T06:22:59.206Z,1003.24
2018-01-21T06:23:34.417Z,1003.22
2018-01-21T06:24:09.703Z,1003.28
2018-01-21T06:24:45.619Z,1003.28
2018-01-21T06:25:20.927Z,1003.29
2018-01-21T06:25:56.323Z,1003.34
2018-01-21T06:26:31.943Z,1003.35
2018-01-21T06:27:07.351Z,1003.32
2018-01-21T06:27:42.554Z,1003.35
2018-01-21T06:28:18.355Z,1003.35
2018-01-21T06:28:53.634Z,1003.38
2018-01-21T06:29:28.955Z,1003.40
2018-01-21T06:30:04.351Z,1003.39
2018-01-21T06:30:39.967Z,1003.46
2018-01-21T06:31:15.187Z,1003.43
2018-01-21T06:31:50.477Z,1003.44
2018-01-21T06:32:25.628Z,1003.45
2018-01-21T06:33:00.915Z,1003.44
2018-01-21T06:33:36.132Z,1003.45
2018-01-21T06:34:11.626Z,1003.47
2018-01-21T06:34:46.944Z,1003.51
2018-01-21T06:35:22.252Z,1003.54
2018-01-21T06:35:57.543Z,1003.48
2018-01-21T06:36:32.861Z,1003.55
2018-01-21T06:37:08.054Z,1003.54
2018-01-21T06:37:43.189Z,1003.59
2018-01-21T06:38:18.415Z,1003.58
2018-01-21T06:38:53.804Z,1003.60
2018-01-21T06:39:29.330Z,1003.58
2018-01-21T06:40:04.621Z,1003.62
2018-01-21T06:40:39.928Z,1003.61
2018-01-21T06:41:15.544Z,1003.60
2018-01-21T06:41:50.822Z,1003.65
2018-01-21T06:42:26.136Z,1003.63
2018-01-21T06:43:01.447Z,1003.68
2018-01-21T06:43:37.150Z,1003.69
2018-01-21T06:44:12.342Z,1003.66
2018-01-21T06:44:47.755Z,1003.69
2018-01-21T06:45:22.964Z,1003.69
2018-01-21T06:45:58.469Z,1003.73
2018-01-21T06:46:33.872Z,1003.73
2018-01-21T06:47:09.356Z,1003.74
2018-01-21T06:47:45.166Z,1003.76
2018-01-21T06:48:20.797Z,1003.78
2018-01-21T06:48:55.985Z,1003.82
2018-01-21T06:49:31.393Z,1003.77
2018-01-21T06:50:06.879Z,1003.80
2018-01-21T06:50:42.179Z,1003.88
2018-01-21T06:51:17.574Z,1003.86
2018-01-21T06:51:52.949Z,1003.89
2018-01-21T06:52:28.552Z,1003.89
2018-01-21T06:53:03.631Z,1003.93
2018-01-21T06:53:38.758Z,1003.97
2018-01-21T06:54:13.928Z,1003.95
2018-01-21T06:54:49.430Z,1003.99
2018-01-21T06:55:24.932Z,1004.00
2018-01-21T06:56:00.509Z,1003.98
2018-01-21T06:56:35.621Z,1003.98
2018-01-21T06:57:10.794Z,1004.00
2018-01-21T06:57:45.897Z,1003.99
2018-01-21T06:58:21.100Z,1004.00
2018-01-21T06:58:56.431Z,1004.01
2018-01-21T06:59:31.599Z,1004.01
2018-01-21T07:00:06.676Z,1004.00
2018-01-21T07:00:42.790Z,1004.05
2018-01-21T07:01:18.387Z,1004.03
2018-01-21T07:01:53.473Z,1004.05
2018-01-21T07:02:28.770Z,1004.08
2018-01-21T07:03:03.846Z,1004.04
2018-01-21T07:03:39.252Z,1004.04
2018-01-21T07:04:14.355Z,1004.08
2018-01-21T07:04:49.853Z,1004.09
2018-01-21T07:05:25.155Z,1004.08
2018-01-21T07:06:00.443Z,1004.13
2018-01-21T07:06:35.747Z,1004.13
2018-01-21T07:07:11.431Z,1004.18
2018-01-21T07:07:46.636Z,1004.21
2018-01-21T07:08:22.176Z,1004.23
2018-01-21T07:08:57.751Z,1004.28
2018-01-21T07:09:32.983Z,1004.25
2018-01-21T07:10:08.473Z,1004.29
2018-01-21T07:10:43.882Z,1004.27
2018-01-21T07:11:19.190Z,1004.29
2018-01-21T07:11:54.775Z,1004.31
2018-01-21T07:12:29.981Z,1004.31
2018-01-21T07:13:05.159Z,1004.29
2018-01-21T07:13:40.556Z,1004.34